Time;durP1;ratioP1;P1;durP2;ratioP2;P2;SDS_P1;SDS_P2;PMS_P1;PMS_P2;Temp;Humidity;BMP_temperature;BMP_pressure;BME280_temperature;BME280_humidity;BME280_pressure;Samples;Min_cycle;Max_cycle;Signal;HPM_P1;HPM_P2
2023/10/17 00:03:32;;;;;;;1.98;1.02;;;16.00;71.20;;;;;;10512459;28;20550;-61
2023/10/17 00:08:33;;;;;;;2.17;0.70;;;16.00;71.30;;;;;;10511073;28;20497;-61
2023/10/17 00:13:45;;;;;;;1.58;0.70;;;16.00;71.40;;;;;;10545543;28;20522;-60
2023/10/17 00:18:45;;;;;;;1.35;0.80;;;16.00;71.30;;;;;;10512748;28;20097;-60
2023/10/17 00:23:47;;;;;;;3.40;1.10;;;16.00;71.50;;;;;;10529572;28;20368;-60
2023/10/17 00:28:49;;;;;;;2.10;0.93;;;16.00;71.30;;;;;;10516908;28;20012;-60
2023/10/17 00:33:57;;;;;;;1.70;0.70;;;16.00;71.30;;;;;;10516141;28;20068;-60
2023/10/17 00:39:08;;;;;;;1.67;0.90;;;15.90;70.80;;;;;;10528913;28;20123;-61
2023/10/17 00:44:08;;;;;;;2.25;1.02;;;16.00;70.70;;;;;;10484705;28;20144;-60
2023/10/17 00:49:10;;;;;;;1.63;0.90;;;16.00;70.70;;;;;;10503113;28;20180;-59
2023/10/17 00:54:11;;;;;;;1.25;0.70;;;15.90;70.60;;;;;;10486098;28;20076;-60
2023/10/17 00:59:12;;;;;;;1.83;0.77;;;15.90;70.70;;;;;;10511384;28;20374;-60
2023/10/17 01:04:14;;;;;;;1.23;0.93;;;15.90;70.80;;;;;;10510664;28;20027;-60
2023/10/17 01:09:17;;;;;;;1.40;0.93;;;15.90;70.70;;;;;;10528633;28;20109;-60
2023/10/17 01:14:18;;;;;;;1.55;0.80;;;15.90;70.80;;;;;;10529276;28;20234;-60
2023/10/17 01:19:20;;;;;;;1.50;0.90;;;15.90;70.80;;;;;;10530144;28;20475;-60
2023/10/17 01:24:21;;;;;;;1.35;0.80;;;15.90;70.80;;;;;;10517936;28;20063;-61
2023/10/17 01:29:22;;;;;;;2.30;0.60;;;15.90;70.90;;;;;;10545820;28;20023;-60
2023/10/17 01:34:23;;;;;;;1.75;0.90;;;15.90;70.80;;;;;;10526461;28;20081;-60
2023/10/17 01:39:25;;;;;;;1.58;0.80;;;15.90;70.80;;;;;;10493091;28;20071;-60
2023/10/17 01:44:26;;;;;;;4.35;0.88;;;15.80;70.80;;;;;;10492297;28;20027;-60
2023/10/17 01:49:27;;;;;;;2.03;0.80;;;15.80;70.80;;;;;;10493275;28;20039;-60
2023/10/17 01:54:29;;;;;;;3.63;1.27;;;15.90;70.70;;;;;;10491734;28;20403;-61
2023/10/17 01:59:29;;;;;;;2.28;1.13;;;15.90;70.40;;;;;;10529633;28;20463;-61
2023/10/17 02:04:34;;;;;;;1.83;0.80;;;15.80;70.40;;;;;;10534664;28;20028;-60
2023/10/17 02:14:37;;;;;;;2.53;1.10;;;15.80;70.50;;;;;;10492298;28;20050;-61
2023/10/17 02:19:39;;;;;;;3.10;0.98;;;15.80;70.50;;;;;;10491751;28;20020;-61
2023/10/17 02:24:40;;;;;;;2.20;1.10;;;15.80;70.50;;;;;;10492287;28;20099;-61
2023/10/17 02:29:41;;;;;;;1.45;1.02;;;15.80;70.50;;;;;;10513966;28;20032;-60
2023/10/17 02:34:46;;;;;;;1.95;1.00;;;15.80;70.50;;;;;;10549368;28;20031;-60
2023/10/17 02:39:47;;;;;;;2.33;0.88;;;15.80;70.50;;;;;;10532634;28;20034;-61
2023/10/17 02:44:48;;;;;;;2.70;0.80;;;15.80;70.60;;;;;;10531776;28;20032;-60
2023/10/17 02:49:49;;;;;;;1.08;0.60;;;15.80;70.50;;;;;;10497440;28;20528;-60
2023/10/17 02:54:56;;;;;;;2.92;1.77;;;15.80;70.50;;;;;;10513908;28;20048;-60
2023/10/17 03:00:07;;;;;;;2.15;0.98;;;15.80;70.50;;;;;;10505851;28;20043;-61
2023/10/17 03:05:11;;;;;;;1.77;0.90;;;15.80;70.60;;;;;;10500623;28;20042;-60
2023/10/17 03:10:20;;;;;;;1.92;1.00;;;15.70;70.40;;;;;;10531766;28;20473;-60
2023/10/17 03:15:29;;;;;;;2.15;1.00;;;15.80;70.40;;;;;;10531483;28;20818;-61
2023/10/17 03:20:41;;;;;;;1.35;0.85;;;15.70;70.20;;;;;;10531126;28;20024;-61
2023/10/17 03:25:41;;;;;;;1.80;1.00;;;15.80;70.20;;;;;;10514672;28;20383;-60
2023/10/17 03:30:43;;;;;;;1.40;1.00;;;15.80;70.30;;;;;;10539946;28;20074;-60
2023/10/17 03:36:03;;;;;;;1.85;1.08;;;15.80;70.30;;;;;;10512583;28;20024;-61
2023/10/17 03:41:26;;;;;;;3.95;1.15;;;15.70;70.30;;;;;;10529643;28;20032;-61
2023/10/17 03:46:25;;;;;;;2.30;0.90;;;15.70;70.30;;;;;;10514992;28;20032;-61
2023/10/17 03:51:27;;;;;;;2.03;0.90;;;15.70;70.30;;;;;;10512476;28;20482;-61
2023/10/17 03:56:35;;;;;;;1.85;1.00;;;15.70;70.30;;;;;;10511979;28;20429;-61
2023/10/17 04:01:36;;;;;;;2.08;1.25;;;15.70;70.40;;;;;;10528558;28;20084;-60
2023/10/17 04:06:40;;;;;;;2.42;1.10;;;15.70;70.40;;;;;;10546003;28;20085;-61
2023/10/17 04:11:43;;;;;;;1.48;0.80;;;15.60;70.30;;;;;;10528185;28;20031;-61
2023/10/17 04:16:44;;;;;;;2.10;1.23;;;15.70;70.40;;;;;;10545668;28;20030;-61
2023/10/17 04:21:51;;;;;;;3.55;1.52;;;15.70;70.40;;;;;;10511535;28;20031;-60
2023/10/17 04:27:05;;;;;;;1.85;0.90;;;15.60;70.30;;;;;;10512515;28;20031;-59
2023/10/17 04:32:13;;;;;;;1.65;0.80;;;15.70;70.50;;;;;;10523943;28;20073;-60
2023/10/17 04:37:16;;;;;;;1.63;0.82;;;15.70;70.20;;;;;;10512635;28;20111;-60
2023/10/17 04:42:26;;;;;;;1.90;1.10;;;15.60;70.00;;;;;;10511734;28;20056;-61
2023/10/17 04:47:27;;;;;;;1.75;1.10;;;15.60;70.10;;;;;;10512068;28;20028;-61
2023/10/17 04:52:29;;;;;;;2.42;1.35;;;15.70;70.20;;;;;;10528469;28;20614;-60
2023/10/17 04:57:55;;;;;;;1.48;0.95;;;15.70;70.20;;;;;;10534280;28;20073;-60
2023/10/17 05:03:45;;;;;;;1.73;0.85;;;15.60;70.20;;;;;;10523610;28;20027;-60
2023/10/17 05:08:32;;;;;;;1.42;0.90;;;15.60;70.20;;;;;;10517279;28;20024;-61
2023/10/17 06:17:24;;;;;;;2.70;1.15;;;15.50;70.00;;;;;;10536136;28;20048;-61
2023/10/17 06:33:03;;;;;;;2.20;1.00;;;15.50;70.10;;;;;;10530245;28;20036;-60
2023/10/17 06:38:05;;;;;;;3.03;1.23;;;15.50;70.10;;;;;;10519736;28;20471;-61
2023/10/17 06:43:13;;;;;;;3.15;1.67;;;15.50;70.10;;;;;;10516624;28;20055;-60
2023/10/17 06:48:14;;;;;;;2.23;1.60;;;15.50;70.10;;;;;;10516366;28;20024;-61
2023/10/17 06:53:15;;;;;;;2.97;1.58;;;15.50;70.10;;;;;;10515786;28;20024;-61
2023/10/17 06:58:16;;;;;;;2.30;1.50;;;15.50;70.10;;;;;;10534302;28;20024;-61
2023/10/17 07:03:24;;;;;;;2.67;1.60;;;15.50;70.20;;;;;;10532431;28;20024;-60
2023/10/17 07:08:31;;;;;;;4.15;2.03;;;15.50;70.20;;;;;;10516585;28;20016;-61
2023/10/17 07:24:25;;;;;;;3.60;1.60;;;15.50;70.00;;;;;;10517742;28;20547;-61
2023/10/17 07:29:25;;;;;;;3.03;2.13;;;15.50;70.00;;;;;;10525305;28;20032;-61
2023/10/17 07:34:33;;;;;;;3.53;1.52;;;15.50;70.20;;;;;;10514768;28;20763;-60
2023/10/17 07:39:37;;;;;;;2.78;1.60;;;15.50;70.20;;;;;;10532437;28;20024;-60
2023/10/17 07:44:41;;;;;;;3.83;1.75;;;15.50;70.30;;;;;;10514978;28;20048;-61
2023/10/17 07:49:41;;;;;;;3.13;1.48;;;15.50;70.40;;;;;;10532595;28;20100;-61
2023/10/17 07:54:55;;;;;;;2.35;1.42;;;15.50;70.50;;;;;;10531912;28;20093;-61
2023/10/17 07:59:58;;;;;;;2.67;1.77;;;15.50;70.50;;;;;;10515420;28;20020;-61
2023/10/17 08:05:17;;;;;;;3.63;1.90;;;15.50;70.50;;;;;;10514765;28;20067;-60
2023/10/17 08:10:29;;;;;;;3.38;2.00;;;15.50;70.60;;;;;;10515889;28;20044;-60
2023/10/17 08:15:46;;;;;;;2.30;1.50;;;15.60;70.80;;;;;;10531461;28;20032;-61
2023/10/17 08:25:59;;;;;;;2.15;1.38;;;15.60;70.90;;;;;;10531277;28;20040;-60
2023/10/17 08:36:42;;;;;;;2.90;1.52;;;15.60;70.90;;;;;;10450560;28;20465;-60
2023/10/17 08:41:43;;;;;;;3.70;2.10;;;15.70;71.00;;;;;;10434527;28;20041;-60
2023/10/17 08:46:43;;;;;;;3.40;1.80;;;15.70;71.00;;;;;;10450378;28;20086;-61
2023/10/17 08:51:44;;;;;;;2.90;1.58;;;15.80;71.10;;;;;;10433870;28;20049;-61
2023/10/17 08:56:50;;;;;;;2.40;1.38;;;15.80;71.10;;;;;;10450051;28;20075;-61
2023/10/17 09:02:14;;;;;;;4.32;1.48;;;15.80;71.10;;;;;;10434294;28;20103;-60
2023/10/17 09:07:31;;;;;;;2.17;1.67;;;15.80;71.00;;;;;;10449680;28;20087;-61
2023/10/17 09:18:07;;;;;;;2.38;1.45;;;15.90;71.10;;;;;;10522895;28;20036;-61
2023/10/17 09:23:34;;;;;;;2.40;1.25;;;15.90;71.10;;;;;;10520228;28;20455;-60
2023/10/17 09:28:41;;;;;;;2.28;1.27;;;16.00;71.20;;;;;;10521151;28;20127;-60
2023/10/17 09:33:44;;;;;;;2.63;1.35;;;15.90;71.10;;;;;;10543598;28;20031;-59
2023/10/17 09:38:47;;;;;;;4.88;1.40;;;16.00;71.20;;;;;;10518975;28;20067;-60
2023/10/17 09:43:53;;;;;;;2.45;1.42;;;16.00;71.10;;;;;;10535409;28;20024;-60
2023/10/17 09:49:00;;;;;;;2.35;1.33;;;16.10;71.20;;;;;;10502785;28;20501;-60
2023/10/17 09:54:04;;;;;;;1.70;1.15;;;16.10;71.20;;;;;;10518261;28;20143;-61
2023/10/17 09:59:16;;;;;;;2.58;1.42;;;16.10;71.20;;;;;;10518865;28;20027;-60
2023/10/17 10:04:20;;;;;;;3.10;1.23;;;16.20;71.20;;;;;;10518336;28;20463;-60
2023/10/17 10:09:26;;;;;;;1.80;1.13;;;16.20;71.20;;;;;;10518107;28;20016;-60
2023/10/17 10:14:27;;;;;;;3.50;1.85;;;16.30;71.30;;;;;;10518349;28;20039;-60
2023/10/17 10:19:46;;;;;;;3.28;1.40;;;16.30;71.20;;;;;;10535520;28;20034;-61
2023/10/17 10:25:04;;;;;;;1.80;1.08;;;16.30;71.20;;;;;;10535902;28;20077;-60
2023/10/17 10:30:33;;;;;;;1.88;1.50;;;16.30;71.20;;;;;;10527387;28;20028;-60
2023/10/17 10:35:33;;;;;;;1.50;0.80;;;16.40;71.30;;;;;;10534960;28;20054;-60
2023/10/17 10:40:39;;;;;;;1.80;1.30;;;16.30;71.20;;;;;;10550858;28;20743;-59
2023/10/17 10:45:42;;;;;;;3.08;1.27;;;16.40;71.20;;;;;;10534810;28;20047;-60
2023/10/17 10:50:48;;;;;;;2.90;1.30;;;16.40;71.30;;;;;;10516735;28;20040;-60
2023/10/17 10:56:00;;;;;;;1.23;0.98;;;16.40;71.30;;;;;;10515871;28;20453;-60
2023/10/17 11:01:07;;;;;;;1.95;1.42;;;16.50;71.30;;;;;;10532646;28;20028;-59
2023/10/17 11:06:08;;;;;;;3.42;1.02;;;16.40;71.20;;;;;;10516657;28;20418;-60
2023/10/17 11:11:10;;;;;;;1.35;1.02;;;16.40;71.30;;;;;;10515705;28;20036;-60
2023/10/17 11:16:16;;;;;;;2.53;1.00;;;16.40;71.30;;;;;;10515344;28;20153;-60
2023/10/17 11:21:22;;;;;;;2.45;1.35;;;16.40;71.40;;;;;;10515638;28;20039;-60
2023/10/17 11:26:30;;;;;;;2.63;1.13;;;16.40;71.30;;;;;;10515028;28;20120;-60
2023/10/17 11:31:32;;;;;;;1.07;0.80;;;16.50;71.30;;;;;;10525206;28;20096;-60
2023/10/17 11:36:47;;;;;;;1.60;0.80;;;16.50;71.30;;;;;;10514722;28;20025;-60
2023/10/17 11:41:55;;;;;;;1.40;0.77;;;16.50;71.30;;;;;;10532795;28;20105;-60
2023/10/17 11:46:58;;;;;;;2.25;0.75;;;16.50;71.40;;;;;;10515172;28;20030;-60
2023/10/17 11:52:09;;;;;;;1.55;1.00;;;16.50;71.40;;;;;;10532363;28;20479;-60
2023/10/17 11:57:12;;;;;;;1.77;1.00;;;16.50;71.50;;;;;;10488884;28;20040;-60
2023/10/17 12:02:14;;;;;;;3.05;0.90;;;16.50;71.50;;;;;;10489881;28;20081;-60
2023/10/17 12:07:15;;;;;;;1.83;1.08;;;16.50;71.50;;;;;;10489088;28;20167;-61
2023/10/17 12:12:19;;;;;;;1.20;0.90;;;16.50;71.50;;;;;;10488928;28;20111;-60
2023/10/17 12:17:20;;;;;;;1.67;0.90;;;16.50;71.60;;;;;;10488483;28;20456;-60
2023/10/17 12:22:20;;;;;;;1.52;0.90;;;16.50;71.50;;;;;;10505518;28;20705;-60
2023/10/17 12:27:21;;;;;;;1.33;0.80;;;16.50;71.60;;;;;;10489794;28;20050;-60
2023/10/17 12:32:22;;;;;;;1.30;0.80;;;16.50;71.60;;;;;;10489830;28;20024;-60
2023/10/17 12:37:23;;;;;;;2.42;0.80;;;16.50;71.60;;;;;;10488204;28;20043;-60
2023/10/17 12:42:24;;;;;;;1.83;0.70;;;16.50;71.60;;;;;;10488370;28;20077;-61
2023/10/17 12:47:24;;;;;;;2.00;0.80;;;16.50;71.70;;;;;;10489225;28;20047;-60
2023/10/17 12:52:26;;;;;;;1.98;0.70;;;16.50;71.70;;;;;;10489832;28;20040;-59
2023/10/17 12:57:27;;;;;;;2.80;0.88;;;16.50;71.70;;;;;;10501756;28;20043;-61
2023/10/17 13:02:29;;;;;;;2.42;0.90;;;16.50;71.80;;;;;;10546068;28;20042;-60
2023/10/17 13:07:29;;;;;;;1.23;0.88;;;16.50;71.80;;;;;;10530198;28;20063;-60
2023/10/17 13:12:30;;;;;;;1.48;0.70;;;16.50;71.80;;;;;;10530967;28;20028;-61
2023/10/17 13:17:32;;;;;;;1.73;0.88;;;16.50;71.80;;;;;;10551407;28;20027;-60
2023/10/17 13:22:37;;;;;;;1.90;0.85;;;16.50;71.90;;;;;;10520406;28;20095;-60
2023/10/17 13:27:38;;;;;;;1.60;0.80;;;16.50;71.90;;;;;;10538044;28;20440;-60
2023/10/17 13:32:38;;;;;;;1.13;0.73;;;16.50;72.00;;;;;;10547434;28;20110;-60
2023/10/17 13:37:51;;;;;;;1.13;0.68;;;16.50;71.90;;;;;;10552816;28;20057;-60
2023/10/17 13:42:55;;;;;;;0.95;0.60;;;16.50;72.00;;;;;;10521458;28;20028;-60
2023/10/17 13:47:56;;;;;;;1.40;0.80;;;16.40;71.90;;;;;;10519736;28;20051;-59
2023/10/17 13:53:06;;;;;;;1.35;0.70;;;16.40;72.00;;;;;;10537134;28;20038;-60
2023/10/17 13:58:07;;;;;;;1.35;0.75;;;16.40;72.00;;;;;;10537066;28;20036;-61
2023/10/17 14:03:12;;;;;;;1.23;0.70;;;16.40;72.00;;;;;;10518624;28;20160;-60
2023/10/17 14:08:18;;;;;;;0.82;0.57;;;16.40;72.10;;;;;;10536003;28;20107;-60
2023/10/17 14:13:20;;;;;;;0.98;0.60;;;16.40;72.20;;;;;;10536389;28;20032;-60
2023/10/17 14:18:29;;;;;;;2.13;1.02;;;16.30;72.10;;;;;;10551327;28;20022;-60
2023/10/17 14:23:32;;;;;;;1.00;0.60;;;16.30;72.10;;;;;;10535470;28;20079;-60
2023/10/17 14:28:34;;;;;;;2.42;0.73;;;16.30;72.20;;;;;;10520422;28;20288;-60
2023/10/17 14:33:35;;;;;;;1.08;0.88;;;16.30;72.10;;;;;;10520839;28;20024;-60
2023/10/17 14:38:35;;;;;;;1.17;0.73;;;16.30;72.10;;;;;;10534841;28;20433;-60
2023/10/17 14:43:36;;;;;;;1.90;1.00;;;16.30;72.10;;;;;;10535354;28;20026;-60
2023/10/17 14:48:37;;;;;;;1.77;0.93;;;16.20;72.10;;;;;;10516927;28;20113;-60
2023/10/17 14:53:43;;;;;;;1.60;0.85;;;16.20;72.10;;;;;;10534975;28;20050;-59
2023/10/17 14:58:52;;;;;;;1.10;0.60;;;16.20;72.10;;;;;;10516108;28;20024;-61
2023/10/17 15:03:54;;;;;;;1.80;0.82;;;16.20;72.20;;;;;;10517134;28;20060;-60
2023/10/17 15:08:55;;;;;;;1.58;0.80;;;16.20;72.10;;;;;;10533882;28;20036;-60
2023/10/17 15:13:56;;;;;;;1.42;0.68;;;16.20;72.20;;;;;;10515617;28;20688;-60
2023/10/17 15:18:57;;;;;;;0.85;0.63;;;16.20;72.20;;;;;;10533531;28;20046;-60
2023/10/17 15:23:57;;;;;;;1.50;0.57;;;16.20;72.20;;;;;;10549335;28;20039;-60
2023/10/17 15:28:58;;;;;;;0.77;0.40;;;16.10;72.20;;;;;;10540382;28;20027;-60
2023/10/17 15:33:59;;;;;;;1.52;0.70;;;16.10;72.20;;;;;;10536600;28;20516;-60
2023/10/17 15:39:00;;;;;;;1.25;0.90;;;16.10;72.20;;;;;;10514283;28;20041;-59
2023/10/17 15:44:01;;;;;;;1.10;0.50;;;16.10;72.30;;;;;;10532866;28;20036;-60
2023/10/17 15:49:02;;;;;;;1.10;0.60;;;16.10;72.20;;;;;;10514432;28;20036;-60
2023/10/17 15:54:03;;;;;;;1.50;0.73;;;16.10;72.30;;;;;;10505917;28;20064;-60
2023/10/17 15:59:03;;;;;;;1.58;0.73;;;16.10;72.30;;;;;;10532203;28;20092;-60
2023/10/17 16:04:06;;;;;;;1.63;0.70;;;16.10;72.30;;;;;;10533047;28;20051;-60
2023/10/17 16:09:09;;;;;;;1.27;0.60;;;16.10;72.30;;;;;;10512949;28;20103;-60
2023/10/17 16:14:12;;;;;;;2.60;0.82;;;16.00;72.30;;;;;;10532254;28;20028;-60
2023/10/17 16:19:14;;;;;;;1.38;0.70;;;16.00;72.30;;;;;;10531807;28;20056;-60
2023/10/17 16:24:16;;;;;;;2.17;0.63;;;16.00;72.30;;;;;;10531511;28;20431;-61
2023/10/17 16:29:16;;;;;;;1.15;0.65;;;16.00;72.20;;;;;;10507901;28;20025;-61
2023/10/17 16:34:18;;;;;;;0.88;0.55;;;16.00;72.20;;;;;;10531981;28;20024;-60
2023/10/17 16:39:20;;;;;;;1.10;0.50;;;16.00;72.20;;;;;;10513722;28;20093;-60
2023/10/17 16:44:22;;;;;;;1.08;0.57;;;16.00;72.30;;;;;;10531940;28;20506;-60
2023/10/17 16:49:23;;;;;;;1.70;0.70;;;16.00;72.20;;;;;;10533414;28;20635;-60
2023/10/17 16:54:24;;;;;;;1.08;0.65;;;16.00;72.30;;;;;;10539188;28;20127;-61
2023/10/17 16:59:26;;;;;;;0.75;0.52;;;16.00;72.30;;;;;;10537884;28;20032;-61
2023/10/17 17:04:31;;;;;;;1.58;0.70;;;16.00;72.30;;;;;;10521369;28;20043;-60
2023/10/17 17:09:32;;;;;;;1.00;0.60;;;16.00;72.20;;;;;;10521460;28;20032;-60
2023/10/17 17:14:33;;;;;;;1.30;0.73;;;16.00;72.20;;;;;;10539332;28;20036;-61
2023/10/17 17:19:34;;;;;;;1.17;0.85;;;16.00;72.20;;;;;;10536653;28;20030;-61
2023/10/17 17:24:36;;;;;;;0.93;0.65;;;15.90;72.20;;;;;;10536519;28;20503;-61
2023/10/17 17:29:37;;;;;;;1.20;0.88;;;15.90;72.20;;;;;;10546378;28;20467;-61
2023/10/17 17:34:38;;;;;;;1.80;0.68;;;15.90;72.20;;;;;;10536148;28;20102;-61
2023/10/17 17:39:39;;;;;;;1.10;0.70;;;15.90;72.20;;;;;;10535626;28;20032;-61
2023/10/17 17:44:39;;;;;;;1.80;1.10;;;15.90;72.20;;;;;;10517345;28;20497;-60
2023/10/17 17:49:43;;;;;;;1.50;0.90;;;15.90;72.20;;;;;;10535247;28;20104;-60
2023/10/17 17:54:46;;;;;;;1.20;0.90;;;15.90;72.20;;;;;;10551172;28;20548;-61
2023/10/17 17:59:48;;;;;;;1.20;0.88;;;15.90;72.20;;;;;;10549817;28;20115;-61
2023/10/17 18:04:49;;;;;;;1.50;0.98;;;15.90;72.10;;;;;;10516766;28;20031;-60
2023/10/17 18:09:50;;;;;;;1.45;0.95;;;15.80;72.10;;;;;;10534073;28;20376;-61
2023/10/17 18:14:51;;;;;;;1.70;1.00;;;15.90;72.10;;;;;;10534196;28;20024;-60
2023/10/17 18:19:54;;;;;;;1.88;1.08;;;15.80;72.10;;;;;;10534026;28;20209;-61
2023/10/17 18:24:55;;;;;;;1.55;0.80;;;15.80;72.10;;;;;;10516754;28;20027;-60
2023/10/17 18:29:57;;;;;;;2.28;1.40;;;15.80;72.00;;;;;;10525883;28;20028;-61
2023/10/17 18:34:58;;;;;;;1.73;1.10;;;15.80;72.00;;;;;;10533761;28;20263;-60
2023/10/17 18:39:59;;;;;;;1.88;1.13;;;15.80;72.00;;;;;;10515215;28;20445;-61
2023/10/17 18:45:02;;;;;;;2.30;1.50;;;15.80;72.00;;;;;;10515008;28;20501;-60
2023/10/17 18:50:04;;;;;;;3.35;1.60;;;15.80;72.00;;;;;;10532573;28;20115;-61
2023/10/17 18:55:09;;;;;;;2.67;1.35;;;15.80;72.00;;;;;;10514704;28;20040;-61
2023/10/17 19:00:19;;;;;;;2.25;1.20;;;15.80;72.00;;;;;;10514877;28;20017;-60
2023/10/17 19:05:20;;;;;;;2.03;1.25;;;15.80;72.00;;;;;;10532455;28;20051;-60
2023/10/17 19:10:22;;;;;;;2.65;1.30;;;15.80;72.00;;;;;;10531866;28;20095;-60
2023/10/17 19:15:23;;;;;;;1.98;1.08;;;15.80;72.00;;;;;;10532070;28;20027;-61
2023/10/17 19:20:24;;;;;;;1.75;1.08;;;15.80;72.00;;;;;;10531717;28;20020;-60
2023/10/17 19:25:28;;;;;;;2.45;1.40;;;15.80;72.00;;;;;;10513414;28;20047;-60
2023/10/17 19:30:30;;;;;;;2.00;1.55;;;15.80;71.90;;;;;;10523505;28;20372;-61
2023/10/17 19:35:32;;;;;;;2.30;1.35;;;15.80;71.90;;;;;;10513080;28;20491;-61
2023/10/17 19:40:32;;;;;;;2.42;1.52;;;15.80;72.00;;;;;;10531076;28;20452;-60
2023/10/17 19:45:33;;;;;;;2.05;1.27;;;15.80;71.90;;;;;;10531079;28;20024;-61
2023/10/17 19:50:35;;;;;;;2.35;1.40;;;15.80;72.00;;;;;;10488583;28;20024;-59
2023/10/17 19:55:40;;;;;;;1.88;1.40;;;15.70;71.90;;;;;;10491301;28;20388;-61
2023/10/17 20:00:41;;;;;;;2.33;1.58;;;15.80;71.90;;;;;;10530469;28;20032;-61
2023/10/17 20:05:43;;;;;;;4.85;1.70;;;15.70;71.90;;;;;;10530589;28;20052;-60
2023/10/17 20:10:44;;;;;;;2.85;1.83;;;15.70;71.80;;;;;;10512310;28;20496;-61
2023/10/17 20:15:44;;;;;;;3.75;2.35;;;15.70;71.90;;;;;;10530143;28;20028;-60
2023/10/17 20:20:46;;;;;;;2.97;1.40;;;15.70;71.90;;;;;;10529679;28;20042;-61
2023/10/17 20:25:54;;;;;;;2.85;2.10;;;15.70;71.90;;;;;;10534778;28;20031;-61
2023/10/17 20:30:55;;;;;;;2.55;1.70;;;15.70;71.80;;;;;;10530126;28;20479;-61
2023/10/17 20:36:02;;;;;;;2.55;1.70;;;15.70;71.80;;;;;;10538321;28;20028;-60
2023/10/17 20:41:06;;;;;;;2.60;1.73;;;15.70;71.80;;;;;;10537900;28;20028;-61
2023/10/17 20:46:06;;;;;;;2.58;1.75;;;15.70;71.80;;;;;;10520413;28;20047;-61
2023/10/17 20:51:07;;;;;;;2.90;1.70;;;15.70;71.80;;;;;;10537417;28;20038;-60
2023/10/17 20:56:11;;;;;;;2.92;1.70;;;15.70;72.40;;;;;;10537247;28;20059;-61
2023/10/17 21:01:13;;;;;;;2.33;1.80;;;15.70;71.80;;;;;;10537809;28;20158;-60
2023/10/17 21:06:16;;;;;;;2.72;1.80;;;15.70;71.90;;;;;;10537217;28;20028;-61
2023/10/17 21:11:19;;;;;;;3.03;1.65;;;15.70;71.80;;;;;;10536504;28;20097;-60
2023/10/17 21:16:21;;;;;;;2.72;2.13;;;15.70;71.80;;;;;;10519425;28;20035;-60
2023/10/17 21:21:21;;;;;;;1.95;1.58;;;15.70;71.80;;;;;;10536587;28;20035;-61
2023/10/17 21:26:23;;;;;;;2.55;1.65;;;15.70;71.80;;;;;;10518512;28;20032;-60
2023/10/17 21:31:24;;;;;;;3.35;1.90;;;15.60;71.80;;;;;;10546489;28;20166;-61
2023/10/17 21:36:25;;;;;;;2.53;1.35;;;15.60;71.80;;;;;;10499988;28;20028;-60
2023/10/17 21:41:26;;;;;;;2.42;1.55;;;15.60;71.80;;;;;;10498619;28;20506;-61
2023/10/17 21:46:26;;;;;;;2.88;1.83;;;15.60;71.80;;;;;;10493747;28;20048;-60
2023/10/17 21:51:27;;;;;;;2.38;1.65;;;15.60;71.70;;;;;;10493544;28;20036;-60
2023/10/17 21:56:28;;;;;;;3.10;2.13;;;15.60;71.80;;;;;;10504890;28;20052;-61
2023/10/17 22:01:30;;;;;;;2.63;1.75;;;15.60;71.70;;;;;;10533877;28;20034;-60
2023/10/17 22:06:31;;;;;;;3.50;2.42;;;15.60;71.70;;;;;;10516851;28;20394;-61
2023/10/17 22:11:33;;;;;;;2.63;1.88;;;15.60;71.70;;;;;;10534401;28;20031;-61
2023/10/17 22:16:37;;;;;;;3.75;2.28;;;15.70;71.80;;;;;;10516745;28;20043;-61
2023/10/17 22:21:37;;;;;;;2.42;1.77;;;15.60;71.70;;;;;;10532594;28;20475;-61
2023/10/17 22:26:38;;;;;;;2.88;2.13;;;15.60;71.70;;;;;;10533857;28;20046;-61
2023/10/17 22:31:39;;;;;;;2.22;1.85;;;15.60;71.70;;;;;;10544331;28;20028;-61
2023/10/17 22:36:39;;;;;;;3.40;2.15;;;15.60;71.70;;;;;;10533936;28;20024;-60
2023/10/17 22:41:40;;;;;;;4.10;2.30;;;15.60;71.70;;;;;;10533037;28;20020;-60
2023/10/17 22:46:41;;;;;;;2.80;1.88;;;15.60;71.70;;;;;;10533202;28;20028;-61
2023/10/17 22:51:42;;;;;;;3.42;1.95;;;15.60;71.70;;;;;;10514617;28;20035;-60
2023/10/17 22:56:43;;;;;;;3.22;2.25;;;15.60;71.70;;;;;;10548411;28;20376;-61
2023/10/17 23:01:43;;;;;;;2.95;1.98;;;15.60;71.80;;;;;;10500954;28;20025;-61
2023/10/17 23:06:44;;;;;;;3.15;2.10;;;15.60;71.70;;;;;;10490532;28;20036;-60
2023/10/17 23:11:45;;;;;;;3.08;1.95;;;15.60;71.80;;;;;;10489730;28;20020;-61
2023/10/17 23:16:46;;;;;;;3.28;2.08;;;15.60;71.80;;;;;;10490093;28;20025;-61
2023/10/17 23:21:47;;;;;;;4.35;1.90;;;15.50;71.70;;;;;;10488647;28;20024;-61
2023/10/17 23:26:48;;;;;;;3.42;2.13;;;15.60;71.70;;;;;;10490129;28;20451;-61
2023/10/17 23:31:49;;;;;;;3.13;2.22;;;15.50;71.70;;;;;;10530351;28;20522;-60
2023/10/17 23:36:50;;;;;;;4.13;2.28;;;15.60;71.80;;;;;;10531046;28;20032;-61
2023/10/17 23:41:51;;;;;;;4.30;2.85;;;15.50;71.60;;;;;;10513027;28;20375;-60
2023/10/17 23:46:51;;;;;;;3.97;1.98;;;15.50;71.70;;;;;;10531378;28;20032;-61
2023/10/17 23:51:52;;;;;;;3.70;2.30;;;15.50;71.70;;;;;;10531002;28;20088;-60
2023/10/17 23:56:53;;;;;;;4.65;2.60;;;15.50;71.70;;;;;;10530038;28;20081;-61
